createdAt,value
2022-10-08T00:03:14.449Z,4.82
2022-10-08T00:08:15.853Z,6.25
2022-10-08T00:13:17.276Z,5.20
2022-10-08T00:18:19.908Z,4.47
2022-10-08T00:23:21.341Z,4.70
2022-10-08T00:28:22.838Z,3.97
2022-10-08T00:33:24.309Z,4.53
2022-10-08T00:38:25.705Z,7.03
2022-10-08T00:43:42.466Z,8.63
2022-10-08T00:48:43.946Z,8.50
2022-10-08T00:53:45.501Z,9.48
2022-10-08T00:58:48.973Z,10.55
2022-10-08T01:03:50.417Z,11.10
2022-10-08T01:09:19.301Z,11.93
2022-10-08T01:14:43.551Z,11.75
2022-10-08T01:20:00.655Z,11.98
2022-10-08T01:25:14.473Z,10.30
2022-10-08T01:30:18.101Z,10.43
2022-10-08T01:35:31.986Z,11.40
2022-10-08T01:40:39.281Z,11.25
2022-10-08T01:45:45.978Z,8.25
2022-10-08T01:50:57.561Z,8.77
2022-10-08T01:56:02.638Z,10.20
2022-10-08T02:01:15.745Z,9.90
2022-10-08T02:06:17.306Z,8.00
2022-10-08T02:11:18.706Z,9.10
2022-10-08T02:16:28.245Z,9.60
2022-10-08T02:21:29.886Z,10.00
2022-10-08T02:26:36.941Z,9.80
2022-10-08T02:31:49.610Z,10.90
2022-10-08T02:37:01.641Z,9.77
2022-10-08T02:42:08.494Z,8.98
2022-10-08T02:47:14.362Z,8.98
2022-10-08T02:52:18.746Z,8.60
2022-10-08T02:57:34.126Z,8.63
2022-10-08T03:02:41.442Z,8.93
2022-10-08T03:07:44.058Z,8.70
2022-10-08T03:12:45.995Z,8.45
2022-10-08T03:17:48.700Z,8.25
2022-10-08T03:22:50.259Z,10.50
2022-10-08T03:27:51.754Z,8.30
2022-10-08T03:32:53.136Z,7.78
2022-10-08T03:37:54.564Z,7.43
2022-10-08T03:42:55.966Z,8.23
2022-10-08T03:47:57.374Z,7.60
2022-10-08T03:52:58.776Z,7.85
2022-10-08T03:58:00.157Z,8.18
2022-10-08T04:03:01.608Z,6.90
2022-10-08T04:08:03.245Z,8.25
2022-10-08T04:13:04.661Z,8.02
2022-10-08T04:18:06.274Z,7.93
2022-10-08T04:23:09.054Z,8.20
2022-10-08T04:28:10.493Z,7.70
2022-10-08T04:33:11.914Z,6.50
2022-10-08T04:38:14.392Z,6.30
2022-10-08T04:43:15.856Z,5.70
2022-10-08T04:48:17.271Z,5.70
2022-10-08T04:53:18.662Z,5.75
2022-10-08T04:58:21.302Z,6.95
2022-10-08T05:03:22.691Z,7.57
2022-10-08T05:08:24.156Z,7.10
2022-10-08T05:13:25.674Z,6.78
2022-10-08T05:18:27.078Z,7.13
2022-10-08T05:23:28.520Z,7.38
2022-10-08T05:28:29.969Z,8.27
2022-10-08T05:33:31.422Z,7.18
2022-10-08T05:38:35.191Z,7.47
2022-10-08T05:43:36.867Z,8.50
2022-10-08T05:48:38.947Z,7.05
2022-10-08T05:53:42.161Z,8.20
2022-10-08T05:58:43.963Z,7.65
2022-10-08T06:03:49.369Z,7.25
2022-10-08T06:08:58.522Z,8.13
2022-10-08T06:14:01.139Z,7.05
2022-10-08T06:19:03.984Z,6.75
2022-10-08T06:24:07.892Z,6.53
2022-10-08T06:29:17.138Z,7.97
2022-10-08T06:39:20.196Z,7.32
2022-10-08T06:44:21.599Z,9.30
2022-10-08T06:49:22.981Z,8.60
2022-10-08T06:54:24.566Z,8.00
2022-10-08T06:59:25.952Z,8.27
2022-10-08T07:04:27.360Z,7.85
2022-10-08T07:09:29.065Z,7.65
2022-10-08T07:14:30.495Z,7.63
2022-10-08T07:19:31.913Z,8.18
2022-10-08T07:24:33.426Z,8.00
2022-10-08T07:29:34.965Z,7.90
2022-10-08T07:34:36.580Z,10.02
2022-10-08T07:39:37.993Z,7.75
2022-10-08T07:44:39.387Z,8.10
2022-10-08T07:49:40.789Z,8.60
2022-10-08T07:54:42.201Z,7.35
2022-10-08T07:59:43.658Z,7.43
2022-10-08T08:04:45.086Z,7.13
2022-10-08T08:09:46.484Z,6.18
2022-10-08T08:14:47.903Z,6.68
2022-10-08T08:19:49.358Z,6.78
2022-10-08T08:24:50.791Z,6.32
2022-10-08T08:29:52.240Z,7.15
2022-10-08T08:34:53.712Z,8.45
2022-10-08T08:39:55.108Z,7.13
2022-10-08T08:45:00.462Z,8.38
2022-10-08T08:50:28.075Z,6.93
2022-10-08T08:55:40.994Z,7.53
2022-10-08T09:00:47.092Z,8.02
2022-10-08T09:05:54.842Z,7.85
2022-10-08T09:10:59.156Z,8.63
2022-10-08T09:16:01.462Z,7.20
2022-10-08T09:21:02.886Z,7.85
2022-10-08T09:26:14.963Z,7.95
2022-10-08T09:31:31.747Z,7.82
2022-10-08T09:36:48.203Z,7.40
2022-10-08T09:42:07.937Z,7.80
2022-10-08T09:47:13.110Z,8.10
2022-10-08T09:52:25.203Z,8.35
2022-10-08T09:57:27.803Z,7.63
2022-10-08T10:02:37.959Z,7.25
2022-10-08T10:07:44.830Z,6.43
2022-10-08T10:12:51.073Z,6.97
2022-10-08T10:18:15.779Z,6.97
2022-10-08T10:23:27.635Z,7.25
2022-10-08T10:28:29.034Z,8.10
2022-10-08T10:33:34.084Z,8.15
2022-10-08T10:38:43.310Z,6.75
2022-10-08T10:43:52.647Z,7.43
2022-10-08T10:48:56.003Z,6.95
2022-10-08T10:54:16.677Z,6.93
2022-10-08T10:59:34.021Z,6.82
2022-10-08T11:04:41.139Z,6.95
2022-10-08T11:10:07.776Z,6.20
2022-10-08T11:15:12.174Z,6.38
2022-10-08T11:20:29.272Z,7.55
2022-10-08T11:26:09.868Z,7.40
2022-10-08T11:31:33.130Z,7.43
2022-10-08T11:36:46.118Z,8.13
2022-10-08T11:41:53.608Z,7.32
2022-10-08T11:47:33.816Z,8.20
2022-10-08T11:52:35.310Z,8.68
2022-10-08T11:58:06.171Z,9.40
2022-10-08T12:02:59.490Z,8.57
2022-10-08T12:08:01.306Z,9.00
2022-10-08T12:13:27.809Z,8.45
2022-10-08T12:18:30.955Z,7.15
2022-10-08T12:23:32.313Z,6.85
2022-10-08T12:28:33.784Z,4.00
2022-10-08T12:33:35.247Z,4.72
2022-10-08T12:39:00.984Z,4.57
2022-10-08T12:44:09.517Z,5.50
2022-10-08T12:49:38.287Z,6.40
2022-10-08T12:54:47.344Z,6.00
2022-10-08T12:59:49.747Z,5.70
2022-10-08T13:04:51.204Z,6.55
2022-10-08T13:10:01.757Z,6.07
2022-10-08T13:15:05.985Z,6.03
2022-10-08T13:20:10.146Z,5.72
2022-10-08T13:25:37.588Z,6.50
2022-10-08T13:30:40.131Z,6.88
2022-10-08T13:35:42.652Z,6.53
2022-10-08T13:40:50.509Z,5.65
2022-10-08T13:45:51.949Z,8.75
2022-10-08T13:50:53.626Z,5.05
2022-10-08T13:55:55.172Z,4.25
2022-10-08T14:00:56.669Z,4.05
2022-10-08T14:05:58.201Z,3.45
2022-10-08T14:11:00.016Z,3.72
2022-10-08T14:16:01.496Z,4.00
2022-10-08T14:21:03.844Z,4.03
2022-10-08T14:26:05.362Z,3.22
2022-10-08T14:31:07.039Z,3.28
2022-10-08T14:36:18.128Z,3.75
2022-10-08T14:41:19.520Z,2.55
2022-10-08T14:46:20.939Z,2.72
2022-10-08T14:51:22.373Z,2.38
2022-10-08T14:56:23.769Z,1.80
2022-10-08T15:01:25.360Z,2.20
2022-10-08T15:06:28.048Z,2.47
2022-10-08T15:11:29.531Z,2.17
2022-10-08T15:16:31.329Z,2.60
2022-10-08T15:21:33.545Z,2.83
2022-10-08T15:26:35.326Z,2.30
2022-10-08T15:31:36.770Z,2.88
2022-10-08T15:36:38.266Z,2.30
2022-10-08T15:41:41.412Z,1.83
2022-10-08T15:46:42.822Z,2.00
2022-10-08T15:51:44.256Z,2.08
2022-10-08T15:56:45.646Z,2.10
2022-10-08T16:01:47.082Z,2.60
2022-10-08T16:06:48.524Z,2.25
2022-10-08T16:11:51.082Z,2.20
2022-10-08T16:16:53.494Z,2.38
2022-10-08T16:21:57.092Z,3.03
2022-10-08T16:26:58.508Z,2.67
2022-10-08T16:31:59.938Z,2.67
2022-10-08T16:37:01.602Z,2.63
2022-10-08T16:42:03.242Z,2.67
2022-10-08T16:47:04.872Z,2.58
2022-10-08T16:52:06.260Z,5.43
2022-10-08T16:57:07.772Z,3.83
2022-10-08T17:02:10.301Z,3.30
2022-10-08T17:07:11.732Z,1.77
2022-10-08T17:12:13.163Z,1.90
2022-10-08T17:17:14.642Z,1.92
2022-10-08T17:22:16.059Z,1.65
2022-10-08T17:27:17.492Z,2.00
2022-10-08T17:32:18.897Z,2.35
2022-10-08T17:37:20.301Z,2.60
2022-10-08T17:42:21.676Z,2.53
2022-10-08T17:47:28.353Z,3.58
2022-10-08T17:52:30.583Z,3.67
2022-10-08T17:57:31.983Z,3.55
2022-10-08T18:02:33.430Z,3.38
2022-10-08T18:07:34.882Z,3.30
2022-10-08T18:12:36.264Z,3.10
2022-10-08T18:17:37.685Z,3.35
2022-10-08T18:22:39.167Z,3.70
2022-10-08T18:27:40.567Z,5.63
2022-10-08T18:32:42.401Z,4.07
2022-10-08T18:37:43.793Z,3.80
2022-10-08T18:42:45.505Z,3.40
2022-10-08T18:47:50.186Z,3.35
2022-10-08T18:52:51.646Z,4.68
2022-10-08T18:57:53.683Z,4.28
2022-10-08T19:02:55.921Z,3.75
2022-10-08T19:07:57.371Z,3.45
2022-10-08T19:12:58.780Z,3.95
2022-10-08T19:18:00.204Z,3.53
2022-10-08T19:23:02.029Z,3.53
2022-10-08T19:28:03.814Z,2.90
2022-10-08T19:33:05.259Z,3.60
2022-10-08T19:38:06.665Z,6.75
2022-10-08T19:43:08.078Z,3.45
2022-10-08T19:48:11.212Z,2.47
2022-10-08T19:53:12.786Z,2.70
2022-10-08T19:58:14.207Z,2.30
2022-10-08T20:03:15.625Z,2.40
2022-10-08T20:08:17.096Z,3.13
2022-10-08T20:13:18.504Z,3.03
2022-10-08T20:18:19.910Z,3.00
2022-10-08T20:23:21.310Z,3.22
2022-10-08T20:28:22.758Z,3.00
2022-10-08T20:33:24.191Z,4.13
2022-10-08T20:38:29.246Z,4.53
2022-10-08T20:43:32.423Z,4.07
2022-10-08T20:48:36.026Z,4.32
2022-10-08T20:53:37.732Z,3.50
2022-10-08T20:58:39.189Z,3.55
2022-10-08T21:03:42.031Z,4.00
2022-10-08T21:08:46.178Z,4.10
2022-10-08T21:13:48.038Z,4.38
2022-10-08T21:18:54.867Z,3.78
2022-10-08T21:23:57.321Z,4.38
2022-10-08T21:29:00.835Z,2.95
2022-10-08T21:34:02.570Z,3.42
2022-10-08T21:39:06.146Z,3.60
2022-10-08T21:44:08.741Z,4.63
2022-10-08T21:49:28.057Z,5.05
2022-10-08T21:54:29.535Z,5.85
2022-10-08T21:59:30.945Z,6.00
2022-10-08T22:04:32.407Z,3.83
2022-10-08T22:09:33.878Z,3.95
2022-10-08T22:14:35.402Z,4.38
2022-10-08T22:19:36.813Z,5.13
2022-10-08T22:24:38.212Z,4.53
2022-10-08T22:29:39.617Z,5.20
2022-10-08T22:34:41.036Z,5.50
2022-10-08T22:39:42.455Z,5.93
2022-10-08T22:44:43.905Z,4.78
2022-10-08T22:49:45.294Z,4.55
2022-10-08T22:54:46.703Z,4.38
2022-10-08T22:59:48.168Z,4.45
2022-10-08T23:04:49.560Z,4.32
2022-10-08T23:09:50.967Z,4.13
2022-10-08T23:14:52.415Z,4.00
2022-10-08T23:19:53.803Z,3.88
2022-10-08T23:24:55.259Z,4.10
2022-10-08T23:29:56.672Z,3.53
2022-10-08T23:34:58.058Z,3.00
2022-10-08T23:39:59.459Z,3.83
2022-10-08T23:45:00.848Z,3.30
2022-10-08T23:50:02.242Z,3.08
2022-10-08T23:55:03.865Z,3.10
